Time;durP1;ratioP1;P1;durP2;ratioP2;P2;SDS_P1;SDS_P2;PMS_P1;PMS_P2;Temp;Humidity;BMP_temperature;BMP_pressure;BME280_temperature;BME280_humidity;BME280_pressure;Samples;Min_cycle;Max_cycle;Signal;HPM_P1;HPM_P2
2023/05/08 00:02:03;;;;;;;;;;;;;;;15.87;70.06;92991.75;2055352;70;20513;-77
2023/05/08 00:04:28;;;;;;;;;;;;;;;15.83;70.91;92985.88;2055456;70;20101;-74
2023/05/08 00:06:57;;;;;;;;;;;;;;;15.82;70.59;92986.53;2055416;70;20038;-75
2023/05/08 00:09:23;;;;;;;;;;;;;;;15.83;70.38;92988.00;2055424;70;20533;-73
2023/05/08 00:11:48;;;;;;;;;;;;;;;15.85;69.76;92986.00;2068335;69;20472;-75
2023/05/08 00:14:15;;;;;;;;;;;;;;;15.87;70.18;92983.25;2055194;70;20085;-76
2023/05/08 00:16:41;;;;;;;;;;;;;;;15.44;72.03;92983.31;2068306;69;20093;-74
2023/05/08 00:19:07;;;;;;;;;;;;;;;15.64;70.70;92975.78;2055429;70;20161;-74
2023/05/08 00:21:32;;;;;;;;;;;;;;;15.77;69.82;92974.25;2068414;69;20510;-75
2023/05/08 00:23:58;;;;;;;;;;;;;;;15.79;69.65;92977.19;2068151;69;20061;-76
2023/05/08 00:26:27;;;;;;;;;;;;;;;15.80;69.53;92981.47;2055400;70;20127;-75
2023/05/08 00:28:54;;;;;;;;;;;;;;;15.78;70.72;92975.00;2055410;70;20102;-75
2023/05/08 00:31:20;;;;;;;;;;;;;;;15.82;69.75;92967.41;2068279;69;20524;-75
2023/05/08 00:33:47;;;;;;;;;;;;;;;15.48;70.98;92972.16;2068255;69;20050;-74
2023/05/08 00:36:14;;;;;;;;;;;;;;;15.04;73.64;92960.19;2068062;69;20066;-73
2023/05/08 00:38:40;;;;;;;;;;;;;;;15.37;70.94;92964.56;2065155;69;20277;-73
2023/05/08 00:41:05;;;;;;;;;;;;;;;15.21;72.25;92973.00;2068234;69;20561;-77
2023/05/08 00:43:32;;;;;;;;;;;;;;;15.10;73.08;92973.91;2068247;69;20049;-76
2023/05/08 00:45:59;;;;;;;;;;;;;;;15.23;71.77;92976.69;2055497;69;20093;-74
2023/05/08 00:48:28;;;;;;;;;;;;;;;15.36;71.30;92975.19;2068607;69;20046;-74
2023/05/08 00:50:54;;;;;;;;;;;;;;;15.43;71.21;92973.34;2055748;70;20058;-74
2023/05/08 00:53:21;;;;;;;;;;;;;;;15.44;71.35;92969.88;2068709;69;20054;-77
2023/05/08 00:55:47;;;;;;;;;;;;;;;15.52;70.90;92978.03;2055496;70;20632;-75
2023/05/08 00:58:14;;;;;;;;;;;;;;;15.52;70.73;92970.25;2055584;70;20077;-76
2023/05/08 01:00:43;;;;;;;;;;;;;;;15.61;70.30;92964.97;2055662;70;20134;-77
2023/05/08 01:03:09;;;;;;;;;;;;;;;15.47;71.67;92967.88;2068732;69;20054;-73
2023/05/08 01:05:35;;;;;;;;;;;;;;;15.50;71.21;92966.59;2055578;70;20046;-77
2023/05/08 01:08:02;;;;;;;;;;;;;;;15.56;70.97;92969.72;2068584;69;20145;-76
2023/05/08 01:10:35;;;;;;;;;;;;;;;15.23;72.25;92970.28;2055767;69;20081;-75
2023/05/08 01:13:02;;;;;;;;;;;;;;;15.32;72.05;92971.41;2068655;69;20077;-72
2023/05/08 01:15:38;;;;;;;;;;;;;;;15.41;71.31;92974.00;2068549;69;20435;-74
2023/05/08 01:18:03;;;;;;;;;;;;;;;15.41;71.77;92978.94;2068513;69;20093;-74
2023/05/08 01:20:41;;;;;;;;;;;;;;;15.40;72.00;92968.97;2068622;69;20119;-74
2023/05/08 01:23:26;;;;;;;;;;;;;;;15.37;72.51;92970.97;2055254;70;20054;-74
2023/05/08 01:25:57;;;;;;;;;;;;;;;15.44;71.61;92975.56;2055072;70;20050;-74
2023/05/08 01:28:38;;;;;;;;;;;;;;;15.38;72.37;92978.09;2068302;69;20062;-73
2023/05/08 01:31:25;;;;;;;;;;;;;;;15.46;71.35;92984.16;2055321;70;20099;-73
2023/05/08 01:34:09;;;;;;;;;;;;;;;15.50;71.29;92984.34;2065347;69;20509;-74
2023/05/08 01:36:39;;;;;;;;;;;;;;;14.49;75.40;92980.88;2055108;70;20129;-74
2023/05/08 01:39:08;;;;;;;;;;;;;;;14.45;75.69;92982.72;2055223;69;20051;-75
2023/05/08 01:41:34;;;;;;;;;;;;;;;14.88;73.65;92979.94;2065243;69;20074;-74
2023/05/08 01:44:04;;;;;;;;;;;;;;;15.06;72.67;92985.03;2067947;69;20486;-74
2023/05/08 01:46:31;;;;;;;;;;;;;;;15.16;72.54;92974.91;2068316;69;20058;-76
2023/05/08 01:48:57;;;;;;;;;;;;;;;15.25;71.81;92976.78;2067964;69;20086;-73
2023/05/08 01:51:24;;;;;;;;;;;;;;;15.17;72.93;92972.84;2065577;69;20110;-74
2023/05/08 01:53:52;;;;;;;;;;;;;;;15.22;72.09;92980.16;2055013;69;20120;-74
2023/05/08 01:56:21;;;;;;;;;;;;;;;15.21;72.14;92975.84;2068241;69;20081;-76
2023/05/08 01:58:48;;;;;;;;;;;;;;;15.14;72.54;92974.84;2055425;70;20042;-75
2023/05/08 02:01:14;;;;;;;;;;;;;;;15.17;71.32;92972.84;2068297;69;20473;-75
2023/05/08 02:03:42;;;;;;;;;;;;;;;15.17;72.58;92976.41;2055487;69;20050;-76
2023/05/08 02:06:09;;;;;;;;;;;;;;;15.23;71.80;92981.63;2055353;70;20143;-75
2023/05/08 02:08:35;;;;;;;;;;;;;;;15.13;72.80;92981.88;2055001;69;20072;-76
2023/05/08 02:11:03;;;;;;;;;;;;;;;15.14;71.69;92974.84;2055461;70;20069;-73
2023/05/08 02:13:29;;;;;;;;;;;;;;;15.14;71.65;92982.63;2068448;69;20490;-74
2023/05/08 02:15:56;;;;;;;;;;;;;;;15.02;72.85;92977.06;2068301;69;20086;-73
2023/05/08 02:18:23;;;;;;;;;;;;;;;14.84;73.86;92984.69;2068356;69;20135;-75
2023/05/08 02:20:50;;;;;;;;;;;;;;;14.80;74.16;92973.13;2055413;70;20102;-75
2023/05/08 02:23:17;;;;;;;;;;;;;;;14.77;73.61;92975.16;2055390;69;20595;-74
2023/05/08 02:25:43;;;;;;;;;;;;;;;14.70;74.23;92976.94;2068387;69;20529;-74
2023/05/08 02:28:09;;;;;;;;;;;;;;;14.83;73.31;92980.38;2068366;69;20445;-75
2023/05/08 02:30:35;;;;;;;;;;;;;;;15.00;72.28;92979.81;2055384;70;20052;-74
2023/05/08 02:33:01;;;;;;;;;;;;;;;14.83;72.86;92960.53;2065796;69;20403;-73
2023/05/08 02:35:29;;;;;;;;;;;;;;;15.02;72.62;92977.06;2055407;69;20145;-75
2023/05/08 02:37:56;;;;;;;;;;;;;;;14.98;72.75;92979.72;2068300;69;20169;-73
2023/05/08 02:40:23;;;;;;;;;;;;;;;14.98;72.75;92982.53;2067964;69;20442;-74
2023/05/08 02:42:49;;;;;;;;;;;;;;;14.70;73.93;92985.44;2068021;69;20063;-73
2023/05/08 02:45:15;;;;;;;;;;;;;;;14.61;74.77;92977.16;2055297;70;20138;-73
2023/05/08 02:47:46;;;;;;;;;;;;;;;14.52;74.94;92980.97;2068459;69;20129;-73
2023/05/08 02:50:33;;;;;;;;;;;;;;;14.82;73.28;92984.59;2068551;69;20061;-75
2023/05/08 02:53:02;;;;;;;;;;;;;;;14.85;73.07;92978.41;2065319;69;20078;-75
2023/05/08 02:55:28;;;;;;;;;;;;;;;14.96;73.11;92988.84;2067975;69;20418;-73
2023/05/08 02:58:00;;;;;;;;;;;;;;;14.89;72.84;92989.19;2068286;69;20499;-73
2023/05/08 03:00:31;;;;;;;;;;;;;;;14.94;72.50;92985.94;2068255;69;20053;-73
2023/05/08 03:03:03;;;;;;;;;;;;;;;15.03;72.22;92987.06;2068292;69;20494;-74
2023/05/08 03:05:31;;;;;;;;;;;;;;;14.93;72.53;92989.38;2055179;70;20054;-74
2023/05/08 03:08:03;;;;;;;;;;;;;;;14.95;71.89;92995.16;2068228;69;20077;-76
2023/05/08 03:10:32;;;;;;;;;;;;;;;14.76;72.73;92987.88;2068035;69;20050;-75
2023/05/08 03:12:58;;;;;;;;;;;;;;;14.86;73.15;92981.97;2055097;70;20053;-75
2023/05/08 03:15:24;;;;;;;;;;;;;;;14.87;72.98;92987.00;2068236;69;20070;-74
2023/05/08 03:17:53;;;;;;;;;;;;;;;14.72;73.91;92982.00;2067913;69;20070;-76
2023/05/08 03:20:20;;;;;;;;;;;;;;;14.84;72.85;92988.25;2065435;69;20437;-75
2023/05/08 03:22:47;;;;;;;;;;;;;;;14.74;73.16;92977.13;2065153;69;20447;-73
2023/05/08 03:25:15;;;;;;;;;;;;;;;14.84;73.39;92988.25;2067904;69;20580;-73
2023/05/08 03:27:43;;;;;;;;;;;;;;;14.91;72.52;92992.13;2068068;69;20554;-73
2023/05/08 03:30:10;;;;;;;;;;;;;;;14.88;72.88;92982.78;2068195;69;20505;-73
2023/05/08 03:32:39;;;;;;;;;;;;;;;14.88;73.40;92990.56;2068251;69;20145;-73
2023/05/08 03:35:05;;;;;;;;;;;;;;;14.92;72.49;92974.47;2068292;69;20050;-75
2023/05/08 03:37:31;;;;;;;;;;;;;;;14.84;73.18;92987.50;2055126;69;20213;-76
2023/05/08 03:39:57;;;;;;;;;;;;;;;14.74;73.51;92988.47;2068116;69;20570;-74
2023/05/08 03:42:24;;;;;;;;;;;;;;;14.35;75.97;92990.72;2068066;69;20051;-74
2023/05/08 03:44:50;;;;;;;;;;;;;;;14.56;74.58;92992.50;2055217;69;20046;-75
2023/05/08 03:47:20;;;;;;;;;;;;;;;14.61;74.31;92997.00;2068305;69;20051;-75
2023/05/08 03:49:47;;;;;;;;;;;;;;;14.76;73.38;93004.88;2068134;69;20089;-75
2023/05/08 03:52:13;;;;;;;;;;;;;;;14.77;73.28;92997.81;2068186;69;20221;-74
2023/05/08 03:54:39;;;;;;;;;;;;;;;14.80;73.36;93004.31;2068152;69;20050;-75
2023/05/08 03:57:05;;;;;;;;;;;;;;;14.83;73.50;93003.78;2065277;69;20425;-76
2023/05/08 03:59:45;;;;;;;;;;;;;;;14.77;74.12;92997.81;2068034;69;20054;-75
2023/05/08 04:02:30;;;;;;;;;;;;;;;14.86;73.10;93005.38;2065448;69;20115;-73
2023/05/08 04:05:01;;;;;;;;;;;;;;;14.85;72.53;93011.69;2068236;69;20179;-73
2023/05/08 04:07:31;;;;;;;;;;;;;;;14.52;74.88;93012.84;2065707;69;20145;-74
2023/05/08 04:10:03;;;;;;;;;;;;;;;14.68;73.36;93012.94;2068103;69;20054;-74
2023/05/08 04:12:37;;;;;;;;;;;;;;;14.80;73.19;93013.56;2068315;69;20532;-73
2023/05/08 04:15:08;;;;;;;;;;;;;;;14.68;74.01;93005.19;2068317;69;20601;-73
2023/05/08 04:17:52;;;;;;;;;;;;;;;14.54;74.62;93004.47;2068302;69;20137;-75
2023/05/08 04:20:19;;;;;;;;;;;;;;;14.63;73.81;93012.00;2068681;69;20403;-74
2023/05/08 04:22:47;;;;;;;;;;;;;;;14.76;72.82;93009.81;2068504;69;20046;-75
2023/05/08 04:25:14;;;;;;;;;;;;;;;14.58;74.58;93007.50;2062477;69;20061;-77
2023/05/08 04:27:42;;;;;;;;;;;;;;;14.80;73.02;93016.41;2055518;69;20521;-77
2023/05/08 04:30:09;;;;;;;;;;;;;;;14.82;72.88;93019.34;2068503;69;20047;-73
2023/05/08 04:32:35;;;;;;;;;;;;;;;14.70;73.96;93021.53;2065598;69;20110;-76
2023/05/08 04:35:01;;;;;;;;;;;;;;;14.71;73.37;93029.44;2068450;69;20058;-76
2023/05/08 04:37:30;;;;;;;;;;;;;;;14.82;73.34;93027.09;2068331;69;20058;-76
2023/05/08 04:39:57;;;;;;;;;;;;;;;14.78;73.52;93026.91;2068380;69;20054;-75
2023/05/08 04:42:24;;;;;;;;;;;;;;;14.79;73.50;93031.19;2071276;69;20279;-74
2023/05/08 04:44:51;;;;;;;;;;;;;;;14.75;74.17;93028.88;2071447;69;20497;-75
2023/05/08 04:47:17;;;;;;;;;;;;;;;14.80;73.68;93029.81;2071507;69;20044;-75
2023/05/08 04:49:42;;;;;;;;;;;;;;;14.80;73.96;93035.50;2071259;69;20081;-75
2023/05/08 04:52:09;;;;;;;;;;;;;;;14.87;73.51;93032.34;2071512;69;20078;-75
2023/05/08 04:54:35;;;;;;;;;;;;;;;14.85;73.17;93045.69;2071168;69;20488;-77
2023/05/08 04:57:02;;;;;;;;;;;;;;;14.79;74.20;93039.69;2071029;69;20053;-74
2023/05/08 04:59:28;;;;;;;;;;;;;;;14.65;74.49;93039.72;2071752;69;20049;-77
2023/05/08 05:01:55;;;;;;;;;;;;;;;14.58;75.14;93044.34;2071123;69;20501;-76
2023/05/08 05:04:21;;;;;;;;;;;;;;;14.57;74.75;93045.72;2071698;69;20063;-74
2023/05/08 05:06:47;;;;;;;;;;;;;;;14.69;74.26;93048.41;2071310;69;20057;-75
2023/05/08 05:09:12;;;;;;;;;;;;;;;14.56;74.88;93044.22;2071163;69;20080;-76
2023/05/08 05:11:38;;;;;;;;;;;;;;;14.53;74.97;93053.25;2071245;69;20089;-74
2023/05/08 05:14:05;;;;;;;;;;;;;;;14.61;74.60;93043.06;2071245;69;20059;-74
2023/05/08 05:16:30;;;;;;;;;;;;;;;14.68;74.49;93046.94;2071236;69;20471;-74
2023/05/08 05:18:56;;;;;;;;;;;;;;;14.28;76.59;93037.06;2071292;69;20118;-73
2023/05/08 05:21:21;;;;;;;;;;;;;;;14.53;75.28;93047.59;2068456;69;20136;-75
2023/05/08 05:23:47;;;;;;;;;;;;;;;14.53;75.64;93047.59;2068370;69;20403;-74
2023/05/08 05:26:15;;;;;;;;;;;;;;;14.73;73.87;93048.63;2071839;69;20142;-76
2023/05/08 05:28:41;;;;;;;;;;;;;;;14.75;74.32;93045.88;2071187;69;20099;-74
2023/05/08 05:31:06;;;;;;;;;;;;;;;14.81;73.82;93053.97;2071246;69;20053;-75
2023/05/08 05:33:32;;;;;;;;;;;;;;;14.83;74.52;93059.75;2071736;69;20087;-74
2023/05/08 05:35:58;;;;;;;;;;;;;;;14.90;74.14;93059.44;2071245;69;20439;-76
2023/05/08 05:38:23;;;;;;;;;;;;;;;14.83;74.91;93060.47;2071119;69;20104;-75
2023/05/08 05:40:49;;;;;;;;;;;;;;;14.80;75.26;93063.81;2070937;69;20048;-75
2023/05/08 05:43:14;;;;;;;;;;;;;;;14.91;74.30;93068.66;2070682;69;20060;-74
2023/05/08 05:45:41;;;;;;;;;;;;;;;14.99;73.14;93069.81;2070794;69;20045;-76
2023/05/08 05:48:06;;;;;;;;;;;;;;;15.00;74.49;93067.72;2071078;69;20052;-73
2023/05/08 05:50:33;;;;;;;;;;;;;;;15.00;74.20;93074.09;2071421;69;20113;-74
2023/05/08 05:52:59;;;;;;;;;;;;;;;14.81;72.98;93080.22;2071329;69;20145;-73
2023/05/08 05:55:26;;;;;;;;;;;;;;;13.91;78.38;93072.66;2071038;69;20064;-74
2023/05/08 05:57:52;;;;;;;;;;;;;;;14.01;78.81;93075.28;2071719;69;20056;-76
2023/05/08 06:00:18;;;;;;;;;;;;;;;14.16;78.17;93076.81;2071601;69;20133;-75
2023/05/08 06:02:48;;;;;;;;;;;;;;;14.26;77.87;93074.50;2068523;69;20060;-75
2023/05/08 06:05:15;;;;;;;;;;;;;;;14.54;75.66;93080.22;2068398;69;20045;-75
2023/05/08 06:07:40;;;;;;;;;;;;;;;14.48;76.69;93081.38;2068300;69;20055;-75
2023/05/08 06:10:08;;;;;;;;;;;;;;;14.67;75.65;93082.31;2071522;69;20068;-76
2023/05/08 06:12:33;;;;;;;;;;;;;;;14.78;75.43;93081.47;2071349;69;20084;-75
2023/05/08 06:14:59;;;;;;;;;;;;;;;14.76;75.30;93075.72;2071259;69;20435;-76
2023/05/08 06:17:25;;;;;;;;;;;;;;;14.89;74.96;93079.88;2071221;69;20044;-76
2023/05/08 06:19:53;;;;;;;;;;;;;;;15.01;74.38;93077.66;2071194;69;20465;-74
2023/05/08 06:22:19;;;;;;;;;;;;;;;15.15;74.53;93083.31;2071220;69;20099;-74
2023/05/08 06:24:44;;;;;;;;;;;;;;;15.27;74.02;93092.44;2071092;69;20517;-75
2023/05/08 06:27:10;;;;;;;;;;;;;;;15.33;73.42;93084.22;2071124;69;20060;-75
2023/05/08 06:29:36;;;;;;;;;;;;;;;15.37;71.37;93083.69;2071620;69;20480;-76
2023/05/08 06:32:01;;;;;;;;;;;;;;;15.45;72.31;93082.00;2071913;69;20045;-74
2023/05/08 06:34:27;;;;;;;;;;;;;;;15.23;73.59;93081.63;2071709;69;20044;-76
2023/05/08 06:36:53;;;;;;;;;;;;;;;15.42;72.61;93088.94;2071630;69;20072;-75
2023/05/08 06:39:18;;;;;;;;;;;;;;;15.37;73.71;93087.25;2071476;69;20049;-75
2023/05/08 06:41:47;;;;;;;;;;;;;;;15.44;73.48;93088.28;2069175;69;20185;-76
2023/05/08 06:44:21;;;;;;;;;;;;;;;15.59;72.82;93084.06;2068425;69;20116;-76
2023/05/08 06:46:47;;;;;;;;;;;;;;;15.57;72.40;93083.94;2055354;69;20047;-75
2023/05/08 06:49:13;;;;;;;;;;;;;;;15.33;72.97;93081.38;2055428;70;20066;-74
2023/05/08 06:51:39;;;;;;;;;;;;;;;15.66;72.59;93088.66;2068306;69;20077;-77
2023/05/08 06:54:07;;;;;;;;;;;;;;;15.93;70.75;93097.06;2055480;69;20116;-77
2023/05/08 06:56:33;;;;;;;;;;;;;;;15.95;70.67;93096.44;2055307;70;20169;-76
2023/05/08 06:58:58;;;;;;;;;;;;;;;15.91;70.52;93093.41;2055302;70;20043;-76
2023/05/08 07:01:23;;;;;;;;;;;;;;;16.01;70.74;93099.56;2068549;69;20074;-73
2023/05/08 07:03:49;;;;;;;;;;;;;;;16.07;70.43;93101.94;2055453;70;20050;-75
2023/05/08 07:06:14;;;;;;;;;;;;;;;16.03;69.70;93091.13;2055421;69;20056;-75
2023/05/08 07:08:40;;;;;;;;;;;;;;;15.74;70.71;93094.75;2055214;70;20073;-75
2023/05/08 07:11:06;;;;;;;;;;;;;;;15.95;69.96;93096.44;2055244;70;20471;-75
2023/05/08 07:13:32;;;;;;;;;;;;;;;16.09;69.06;93091.44;2055219;70;20058;-75
2023/05/08 07:15:57;;;;;;;;;;;;;;;16.14;68.35;93095.19;2055388;70;20101;-76
2023/05/08 07:18:23;;;;;;;;;;;;;;;16.26;67.84;93093.66;2055308;70;20081;-75
2023/05/08 07:20:49;;;;;;;;;;;;;;;16.44;67.52;93095.84;2068301;69;20509;-76
2023/05/08 07:23:15;;;;;;;;;;;;;;;16.61;67.41;93100.16;2055364;70;20494;-74
2023/05/08 07:25:41;;;;;;;;;;;;;;;16.61;68.55;93097.31;2055145;70;20062;-75
2023/05/08 07:28:07;;;;;;;;;;;;;;;16.51;69.55;93106.84;2068127;69;20074;-75
2023/05/08 07:30:32;;;;;;;;;;;;;;;16.73;68.56;93097.91;2055180;70;20150;-74
2023/05/08 07:32:58;;;;;;;;;;;;;;;16.85;67.20;93103.38;2055232;69;20141;-77
2023/05/08 07:35:23;;;;;;;;;;;;;;;16.82;66.54;93093.31;2055315;70;20078;-77
2023/05/08 07:37:49;;;;;;;;;;;;;;;16.98;65.19;93100.41;2055344;70;20046;-76
2023/05/08 07:40:14;;;;;;;;;;;;;;;17.13;65.99;93095.34;2055182;69;20061;-77
2023/05/08 07:42:41;;;;;;;;;;;;;;;17.07;66.43;93097.94;2055249;70;20069;-77
2023/05/08 07:45:07;;;;;;;;;;;;;;;17.25;65.97;93104.41;2055596;70;20054;-75
2023/05/08 07:47:33;;;;;;;;;;;;;;;17.15;67.09;93099.00;2055894;70;20077;-77
2023/05/08 07:49:58;;;;;;;;;;;;;;;17.01;66.24;93101.25;2055480;70;20088;-76
2023/05/08 07:52:24;;;;;;;;;;;;;;;17.09;66.64;93109.38;2055591;70;20046;-75
2023/05/08 07:54:49;;;;;;;;;;;;;;;17.29;67.05;93098.88;2056329;70;20486;-76
2023/05/08 07:57:15;;;;;;;;;;;;;;;17.28;66.03;93101.00;2072423;69;20246;-75
2023/05/08 07:59:42;;;;;;;;;;;;;;;16.95;66.24;93100.97;2059975;70;20046;-74
2023/05/08 08:02:09;;;;;;;;;;;;;;;17.28;64.90;93097.41;2055869;70;20046;-76
2023/05/08 08:04:40;;;;;;;;;;;;;;;17.60;64.86;93097.31;2068773;69;20145;-78
2023/05/08 08:07:07;;;;;;;;;;;;;;;17.62;64.52;93098.13;2055684;69;20078;-77
2023/05/08 08:09:32;;;;;;;;;;;;;;;17.54;64.75;93092.81;2055761;70;20154;-75
2023/05/08 08:11:58;;;;;;;;;;;;;;;17.13;65.43;93098.19;2055714;70;20145;-75
2023/05/08 08:14:23;;;;;;;;;;;;;;;17.71;63.26;93096.34;2068893;69;20113;-76
2023/05/08 08:16:49;;;;;;;;;;;;;;;17.77;63.02;93096.59;2056089;70;20051;-77
2023/05/08 08:19:14;;;;;;;;;;;;;;;17.22;64.75;93094.31;2055834;70;20433;-75
2023/05/08 08:21:43;;;;;;;;;;;;;;;17.26;64.84;93100.16;2065694;69;20061;-75
2023/05/08 08:24:08;;;;;;;;;;;;;;;16.82;65.26;93096.16;2055775;69;20043;-74
2023/05/08 08:26:35;;;;;;;;;;;;;;;16.90;63.74;93090.78;2056150;70;20116;-75
2023/05/08 08:29:01;;;;;;;;;;;;;;;17.27;63.21;93087.41;2056015;70;20149;-75
2023/05/08 08:31:26;;;;;;;;;;;;;;;17.88;62.48;93089.94;2055823;70;20149;-75
2023/05/08 08:33:51;;;;;;;;;;;;;;;18.03;62.10;93091.97;2056001;69;20058;-75
2023/05/08 08:36:18;;;;;;;;;;;;;;;18.11;62.13;93094.41;2055707;70;20051;-77
2023/05/08 08:38:44;;;;;;;;;;;;;;;18.00;61.43;93093.25;2055725;69;20042;-77
2023/05/08 08:41:12;;;;;;;;;;;;;;;18.24;61.77;93089.91;2068688;69;20149;-77
2023/05/08 08:43:42;;;;;;;;;;;;;;;17.36;62.12;93086.34;2055639;69;20054;-75
2023/05/08 08:46:13;;;;;;;;;;;;;;;17.33;62.70;93087.69;2055746;70;20062;-77
2023/05/08 08:48:42;;;;;;;;;;;;;;;17.98;61.43;93083.91;2055668;70;20441;-75
2023/05/08 08:51:12;;;;;;;;;;;;;;;18.18;60.47;93081.84;2055551;70;20054;-75
2023/05/08 08:53:41;;;;;;;;;;;;;;;18.37;59.65;93089.00;2055613;69;20134;-76
2023/05/08 08:56:08;;;;;;;;;;;;;;;17.58;60.94;93088.69;2055722;69;20057;-75
2023/05/08 08:58:39;;;;;;;;;;;;;;;18.31;59.86;93085.91;2068661;69;20050;-77
2023/05/08 09:01:06;;;;;;;;;;;;;;;18.63;59.06;93086.38;2068580;69;20077;-77
2023/05/08 09:03:32;;;;;;;;;;;;;;;18.67;59.00;93091.50;2055662;70;20138;-75
2023/05/08 09:06:00;;;;;;;;;;;;;;;18.72;58.30;93091.03;2055710;69;20141;-75
2023/05/08 09:08:27;;;;;;;;;;;;;;;18.65;57.13;93089.34;2055931;69;20119;-75
2023/05/08 09:10:55;;;;;;;;;;;;;;;18.55;58.71;93091.78;2055719;69;20502;-74
2023/05/08 09:13:20;;;;;;;;;;;;;;;18.12;58.60;93080.88;2068532;69;20119;-75
2023/05/08 09:15:47;;;;;;;;;;;;;;;18.09;57.32;93091.47;2055590;70;20086;-77
2023/05/08 09:18:13;;;;;;;;;;;;;;;17.66;60.76;93091.84;2055634;70;20060;-76
2023/05/08 09:20:39;;;;;;;;;;;;;;;18.42;59.26;93079.22;2055680;70;20046;-77
2023/05/08 09:23:05;;;;;;;;;;;;;;;17.72;62.07;93083.56;2055512;70;20051;-77
2023/05/08 09:25:41;;;;;;;;;;;;;;;17.25;64.24;93081.63;2055595;69;20051;-77
2023/05/08 09:28:22;;;;;;;;;;;;;;;17.65;63.57;93079.75;2055511;70;20046;-76
2023/05/08 09:30:49;;;;;;;;;;;;;;;17.64;61.90;93086.81;2055496;69;20081;-77
2023/05/08 09:33:14;;;;;;;;;;;;;;;17.19;64.51;93084.22;2055492;70;20236;-74
2023/05/08 09:35:40;;;;;;;;;;;;;;;16.85;64.35;93075.66;2055616;70;20557;-79
2023/05/08 09:38:05;;;;;;;;;;;;;;;17.95;63.47;93082.34;2055475;69;20107;-78
2023/05/08 09:40:32;;;;;;;;;;;;;;;18.67;61.50;93080.09;2055615;70;20426;-79
2023/05/08 09:43:10;;;;;;;;;;;;;;;19.11;58.16;93074.59;2055458;69;20054;-76
2023/05/08 09:45:37;;;;;;;;;;;;;;;19.27;58.70;93073.00;2068596;69;20050;-78
2023/05/08 09:48:05;;;;;;;;;;;;;;;19.56;56.77;93076.81;2055637;70;20062;-79
2023/05/08 09:50:32;;;;;;;;;;;;;;;19.17;57.39;93081.22;2055573;69;20053;-77
2023/05/08 09:52:57;;;;;;;;;;;;;;;19.92;55.60;93076.59;2055657;70;20161;-77
2023/05/08 09:55:23;;;;;;;;;;;;;;;18.97;56.75;93081.25;2056256;69;20050;-76
2023/05/08 09:57:51;;;;;;;;;;;;;;;19.52;56.92;93079.56;2056486;70;20043;-77
2023/05/08 10:00:17;;;;;;;;;;;;;;;19.29;57.17;93080.94;2055578;70;20123;-76
2023/05/08 10:02:52;;;;;;;;;;;;;;;19.22;56.67;93082.09;2068516;69;20054;-77
2023/05/08 10:05:21;;;;;;;;;;;;;;;19.68;54.52;93080.13;2055539;70;20518;-76
2023/05/08 10:07:47;;;;;;;;;;;;;;;20.93;53.79;93078.22;2055419;70;20141;-75
2023/05/08 10:10:12;;;;;;;;;;;;;;;21.48;52.01;93079.75;2055325;70;20142;-75
2023/05/08 10:12:40;;;;;;;;;;;;;;;22.47;50.85;93078.59;2055435;70;20054;-76
2023/05/08 10:15:06;;;;;;;;;;;;;;;23.65;47.63;93073.84;2055322;69;20050;-77
2023/05/08 10:17:58;;;;;;;;;;;;;;;24.66;44.95;93068.28;2068389;69;20053;-76
2023/05/08 10:20:28;;;;;;;;;;;;;;;24.08;44.47;93069.53;2054839;69;20132;-77
2023/05/08 10:22:55;;;;;;;;;;;;;;;25.33;44.59;93069.16;2068344;69;20094;-76
2023/05/08 10:25:21;;;;;;;;;;;;;;;23.93;42.36;93068.59;2055222;70;20046;-75
2023/05/08 10:27:53;;;;;;;;;;;;;;;23.42;45.39;93073.41;2055415;70;20135;-75
2023/05/08 10:30:22;;;;;;;;;;;;;;;22.74;42.82;93065.56;2055563;69;20520;-75
2023/05/08 10:32:53;;;;;;;;;;;;;;;21.62;46.25;93060.06;2055411;70;20119;-77
2023/05/08 10:35:19;;;;;;;;;;;;;;;20.37;53.65;93055.13;2055491;69;20131;-75
2023/05/08 10:37:47;;;;;;;;;;;;;;;22.63;47.55;93057.41;2055328;70;20057;-75
2023/05/08 10:40:19;;;;;;;;;;;;;;;22.43;45.15;93055.56;2055297;70;20060;-75
2023/05/08 10:42:46;;;;;;;;;;;;;;;22.61;47.54;93055.25;2055320;70;20058;-76
2023/05/08 10:45:11;;;;;;;;;;;;;;;21.26;49.83;93054.09;2055446;70;20502;-74
2023/05/08 10:47:42;;;;;;;;;;;;;;;21.34;49.51;93056.47;2055438;70;20065;-74
2023/05/08 10:50:14;;;;;;;;;;;;;;;21.56;47.93;93051.31;2068318;69;20046;-74
2023/05/08 10:53:05;;;;;;;;;;;;;;;20.52;50.93;93052.03;2068393;69;20054;-74
2023/05/08 10:55:32;;;;;;;;;;;;;;;20.15;52.39;93050.16;2055346;70;20046;-77
2023/05/08 10:58:02;;;;;;;;;;;;;;;21.27;49.78;93044.09;2068462;69;20569;-74
2023/05/08 11:00:32;;;;;;;;;;;;;;;20.74;50.32;93042.63;2054990;70;20522;-75
2023/05/08 11:03:04;;;;;;;;;;;;;;;21.05;49.24;93038.50;2054880;69;20486;-75
2023/05/08 11:05:29;;;;;;;;;;;;;;;21.21;49.38;93036.09;2054725;70;20524;-74
2023/05/08 11:07:55;;;;;;;;;;;;;;;21.53;48.68;93035.47;2054776;69;20070;-75
2023/05/08 11:10:21;;;;;;;;;;;;;;;21.55;48.35;93032.69;2054965;70;20151;-75
2023/05/08 11:12:50;;;;;;;;;;;;;;;20.48;51.19;93025.44;2068383;69;20055;-74
2023/05/08 11:15:16;;;;;;;;;;;;;;;20.80;50.36;93022.78;2055412;70;20046;-75
2023/05/08 11:17:49;;;;;;;;;;;;;;;21.31;50.34;93019.19;2055569;69;20054;-74
2023/05/08 11:20:14;;;;;;;;;;;;;;;20.88;51.62;93019.41;2067691;69;20066;-75
2023/05/08 11:22:46;;;;;;;;;;;;;;;21.11;49.80;93021.47;2055359;70;20052;-75
2023/05/08 11:25:12;;;;;;;;;;;;;;;20.90;50.03;93019.50;2068094;69;20129;-74
2023/05/08 11:27:47;;;;;;;;;;;;;;;20.18;51.25;93008.84;2055234;70;20082;-76
2023/05/08 11:30:20;;;;;;;;;;;;;;;20.52;50.44;93009.13;2055379;70;20058;-76
2023/05/08 11:32:57;;;;;;;;;;;;;;;20.59;50.21;93010.03;2068320;69;20050;-76
2023/05/08 11:35:45;;;;;;;;;;;;;;;21.26;50.32;93011.88;2055268;69;20429;-76
2023/05/08 11:38:18;;;;;;;;;;;;;;;21.11;48.95;93001.44;2053474;69;20049;-78
2023/05/08 11:40:44;;;;;;;;;;;;;;;21.90;48.27;93008.47;2055204;70;20132;-75
2023/05/08 11:43:24;;;;;;;;;;;;;;;20.70;49.72;93005.34;2055245;69;20070;-76
2023/05/08 11:45:51;;;;;;;;;;;;;;;20.22;51.70;92994.66;2055394;70;20467;-78
2023/05/08 11:48:17;;;;;;;;;;;;;;;21.20;50.17;92993.81;2055263;69;20085;-77
2023/05/08 11:50:43;;;;;;;;;;;;;;;20.67;50.82;92992.41;2055282;69;20105;-78
2023/05/08 11:53:09;;;;;;;;;;;;;;;21.00;50.34;92986.16;2055315;69;20181;-75
2023/05/08 11:55:35;;;;;;;;;;;;;;;21.21;50.69;92995.25;2068052;69;20205;-74
2023/05/08 11:58:01;;;;;;;;;;;;;;;20.30;51.77;92994.19;2055269;69;20490;-75
2023/05/08 12:00:28;;;;;;;;;;;;;;;21.80;48.14;92986.00;2055363;70;20089;-75
2023/05/08 12:02:54;;;;;;;;;;;;;;;22.54;46.90;92994.16;2055209;70;20114;-76
2023/05/08 12:05:28;;;;;;;;;;;;;;;23.42;46.29;92992.25;2055268;70;20124;-76
2023/05/08 12:07:55;;;;;;;;;;;;;;;23.75;43.69;92987.78;2067926;69;20070;-76
2023/05/08 12:10:21;;;;;;;;;;;;;;;23.96;43.00;92991.72;2055392;70;20085;-75
2023/05/08 12:12:47;;;;;;;;;;;;;;;24.74;41.64;92988.53;2055389;69;20465;-76
2023/05/08 12:15:13;;;;;;;;;;;;;;;26.08;40.12;92994.22;2055491;69;20051;-76
2023/05/08 12:17:39;;;;;;;;;;;;;;;26.90;38.80;92998.34;2068266;69;20089;-76
2023/05/08 12:20:18;;;;;;;;;;;;;;;27.66;37.05;92992.81;2055272;70;20090;-78
2023/05/08 12:22:51;;;;;;;;;;;;;;;27.93;35.91;92994.28;2068203;69;20081;-77
2023/05/08 12:25:17;;;;;;;;;;;;;;;27.72;35.94;92992.81;2055179;69;20062;-75
2023/05/08 12:27:43;;;;;;;;;;;;;;;29.50;34.40;92987.41;2055180;69;20523;-76
2023/05/08 12:30:12;;;;;;;;;;;;;;;31.37;30.82;92994.47;2055101;70;20104;-76
2023/05/08 12:32:40;;;;;;;;;;;;;;;31.11;28.79;92986.81;2055155;69;20521;-77
2023/05/08 12:35:06;;;;;;;;;;;;;;;31.62;30.46;92991.25;2055170;69;20082;-76
2023/05/08 12:37:32;;;;;;;;;;;;;;;32.06;30.15;92995.72;2055171;69;20056;-77
2023/05/08 12:39:57;;;;;;;;;;;;;;;29.52;32.27;92981.63;2055367;70;20054;-76
2023/05/08 12:42:45;;;;;;;;;;;;;;;28.17;32.92;92989.94;2055538;70;20487;-76
2023/05/08 12:45:21;;;;;;;;;;;;;;;28.22;33.01;92988.50;2055768;70;20053;-76
2023/05/08 12:47:47;;;;;;;;;;;;;;;28.08;34.33;92984.16;2068579;69;20129;-76
2023/05/08 12:50:14;;;;;;;;;;;;;;;28.40;33.51;92976.91;2068525;69;20050;-76
2023/05/08 12:52:39;;;;;;;;;;;;;;;26.41;36.09;92982.91;2055511;70;20516;-75